Time;durP1;ratioP1;P1;durP2;ratioP2;P2;SDS_P1;SDS_P2;PMS_P1;PMS_P2;Temp;Humidity;BMP_temperature;BMP_pressure;BME280_temperature;BME280_humidity;BME280_pressure;Samples;Min_cycle;Max_cycle;Signal;HPM_P1;HPM_P2
2024/01/09 00:00:54;;;;;;;7.87;4.57;;;-6.60;99.90;;;;;;4762066;30;20201;-86
2024/01/09 00:03:19;;;;;;;8.80;4.53;;;-6.60;99.90;;;;;;4741390;30;20216;-86
2024/01/09 00:05:45;;;;;;;6.80;4.30;;;-6.70;99.90;;;;;;4771035;30;20236;-86
2024/01/09 00:08:11;;;;;;;8.50;4.30;;;-6.70;99.90;;;;;;4763038;30;20199;-85
2024/01/09 00:10:37;;;;;;;9.60;4.60;;;-6.70;99.90;;;;;;4763058;30;20193;-85
2024/01/09 00:13:04;;;;;;;8.87;4.30;;;-6.70;99.90;;;;;;4779033;30;20247;-86
2024/01/09 00:15:30;;;;;;;8.27;4.47;;;-6.80;99.90;;;;;;4765435;30;20197;-85
2024/01/09 00:18:03;;;;;;;9.20;4.37;;;-6.70;99.90;;;;;;4781212;30;20193;-86
2024/01/09 00:20:29;;;;;;;8.80;4.47;;;-6.70;99.90;;;;;;4756180;30;20201;-85
2024/01/09 00:22:55;;;;;;;10.43;5.13;;;-6.70;99.90;;;;;;4766196;30;20236;-85
2024/01/09 00:25:21;;;;;;;10.17;4.60;;;-6.70;99.90;;;;;;4774546;30;20190;-85
2024/01/09 00:27:56;;;;;;;9.30;4.57;;;-6.80;99.90;;;;;;4774331;30;20225;-85
2024/01/09 00:30:22;;;;;;;9.37;4.70;;;-6.80;99.90;;;;;;4758643;30;20714;-85
2024/01/09 00:32:49;;;;;;;8.00;4.50;;;-6.80;99.90;;;;;;4765656;30;20302;-86
2024/01/09 00:35:14;;;;;;;8.67;4.50;;;-6.80;99.90;;;;;;4758311;30;20211;-85
2024/01/09 00:37:49;;;;;;;10.07;4.57;;;-6.80;99.90;;;;;;4783714;30;20198;-85
2024/01/09 00:40:15;;;;;;;7.80;4.13;;;-6.90;99.90;;;;;;4783685;30;20194;-86
2024/01/09 00:42:41;;;;;;;8.93;4.83;;;-6.90;99.90;;;;;;4775351;29;20676;-86
2024/01/09 00:45:08;;;;;;;9.33;4.60;;;-6.80;99.90;;;;;;4774521;30;20209;-85
2024/01/09 00:47:34;;;;;;;5.90;4.10;;;-6.80;99.90;;;;;;4758025;30;20206;-85
2024/01/09 00:50:00;;;;;;;8.57;4.33;;;-6.90;99.90;;;;;;4762588;30;20659;-85
2024/01/09 00:52:25;;;;;;;8.30;4.53;;;-6.90;99.90;;;;;;4777092;30;20236;-85
2024/01/09 00:54:51;;;;;;;10.20;4.90;;;-6.80;99.90;;;;;;4768790;30;20201;-85
2024/01/09 00:57:18;;;;;;;10.07;4.80;;;-6.80;99.90;;;;;;4777923;30;20199;-85
2024/01/09 00:59:44;;;;;;;6.30;4.10;;;-6.80;99.90;;;;;;4783948;30;20233;-85
2024/01/09 01:02:09;;;;;;;9.93;4.90;;;-6.80;99.90;;;;;;4762673;30;20285;-85
2024/01/09 01:04:38;;;;;;;6.03;3.80;;;-6.90;99.90;;;;;;4765460;30;20248;-85
2024/01/09 01:07:04;;;;;;;9.67;4.30;;;-6.80;99.90;;;;;;4755186;30;20203;-85
2024/01/09 01:09:32;;;;;;;6.47;4.03;;;-6.80;99.90;;;;;;4772676;30;20209;-85
2024/01/09 01:11:58;;;;;;;8.27;4.07;;;-6.90;99.90;;;;;;4773987;30;20208;-85
2024/01/09 01:14:24;;;;;;;8.97;4.30;;;-6.90;99.90;;;;;;4773795;30;20199;-85
2024/01/09 01:16:51;;;;;;;9.47;4.23;;;-6.90;99.90;;;;;;4757825;30;20195;-86
2024/01/09 01:19:24;;;;;;;8.53;4.43;;;-6.90;99.90;;;;;;4754924;30;20200;-85
2024/01/09 01:21:50;;;;;;;10.03;4.30;;;-6.90;99.90;;;;;;4766254;30;20213;-85
2024/01/09 01:24:16;;;;;;;9.23;4.67;;;-6.90;99.90;;;;;;4764057;30;20314;-85
2024/01/09 01:26:41;;;;;;;9.03;5.00;;;-6.90;99.90;;;;;;4758250;30;20202;-85
2024/01/09 01:29:09;;;;;;;9.07;4.63;;;-7.00;99.90;;;;;;4757882;30;20269;-85
2024/01/09 01:31:35;;;;;;;10.40;4.60;;;-6.90;99.90;;;;;;4780344;30;20187;-85
2024/01/09 01:34:01;;;;;;;7.23;4.03;;;-7.00;99.90;;;;;;4761483;30;20188;-85
2024/01/09 01:36:27;;;;;;;6.50;3.60;;;-7.00;99.90;;;;;;4783512;30;20625;-85
2024/01/09 01:38:54;;;;;;;7.37;4.20;;;-7.00;99.90;;;;;;4764271;30;20204;-85
2024/01/09 01:41:20;;;;;;;9.63;4.20;;;-7.00;99.90;;;;;;4764579;30;20200;-85
2024/01/09 01:43:46;;;;;;;9.03;4.50;;;-7.00;99.90;;;;;;4767160;30;20220;-86
2024/01/09 01:46:12;;;;;;;8.67;4.60;;;-7.00;99.90;;;;;;4768895;30;20192;-86
2024/01/09 01:48:38;;;;;;;8.23;4.20;;;-7.00;99.90;;;;;;4772892;30;20321;-85
2024/01/09 01:51:06;;;;;;;6.43;4.17;;;-7.00;99.90;;;;;;4767331;30;20258;-86
2024/01/09 01:53:33;;;;;;;7.03;4.13;;;-7.00;99.90;;;;;;4759350;30;20203;-86
2024/01/09 01:55:59;;;;;;;9.57;4.53;;;-7.00;99.90;;;;;;4773030;30;20257;-86
2024/01/09 01:58:32;;;;;;;8.93;4.60;;;-7.00;99.90;;;;;;4780391;30;20197;-86
2024/01/09 02:00:59;;;;;;;7.80;4.40;;;-7.00;99.90;;;;;;4747789;30;20633;-86
2024/01/09 02:03:25;;;;;;;10.47;4.70;;;-7.00;99.90;;;;;;4768509;30;20329;-86
2024/01/09 02:05:52;;;;;;;10.40;4.30;;;-7.00;99.90;;;;;;4746939;30;20393;-86
2024/01/09 02:08:22;;;;;;;11.83;4.50;;;-7.00;99.90;;;;;;4768995;30;20250;-85
2024/01/09 02:10:48;;;;;;;7.30;4.30;;;-7.10;99.90;;;;;;4764301;30;20287;-86
2024/01/09 02:13:14;;;;;;;7.73;3.83;;;-7.10;99.90;;;;;;4756948;30;20330;-86
2024/01/09 02:15:40;;;;;;;8.13;4.43;;;-7.10;99.90;;;;;;4756983;30;20528;-86
2024/01/09 02:18:06;;;;;;;7.40;3.77;;;-7.10;99.90;;;;;;4756641;30;20210;-86
2024/01/09 02:20:33;;;;;;;7.23;4.00;;;-7.20;99.90;;;;;;4764089;30;20280;-85
2024/01/09 02:22:58;;;;;;;8.47;4.27;;;-7.20;99.90;;;;;;4756702;30;20227;-86
2024/01/09 02:25:25;;;;;;;7.37;3.90;;;-7.20;99.90;;;;;;4764017;30;20304;-86
2024/01/09 02:28:06;;;;;;;8.43;4.47;;;-7.20;99.90;;;;;;4753115;30;20653;-86
2024/01/09 02:30:33;;;;;;;7.50;4.30;;;-7.30;99.90;;;;;;4758823;30;20204;-86
2024/01/09 02:33:00;;;;;;;7.43;4.07;;;-7.40;99.90;;;;;;4779591;30;20199;-86
2024/01/09 02:35:25;;;;;;;7.70;3.93;;;-7.40;99.90;;;;;;4779717;30;20276;-86
2024/01/09 02:37:51;;;;;;;11.37;3.93;;;-7.40;99.90;;;;;;4774856;30;20228;-86
2024/01/09 02:40:19;;;;;;;7.80;4.10;;;-7.40;99.90;;;;;;4767557;30;20257;-86
2024/01/09 02:42:46;;;;;;;8.43;4.13;;;-7.50;99.90;;;;;;4765931;30;20240;-87
2024/01/09 02:45:13;;;;;;;6.93;3.80;;;-7.50;99.90;;;;;;4789599;29;20190;-86
2024/01/09 02:47:39;;;;;;;8.47;4.73;;;-7.50;99.90;;;;;;4773228;30;20280;-86
2024/01/09 02:50:13;;;;;;;7.97;4.30;;;-7.50;99.90;;;;;;4785296;30;20280;-86
2024/01/09 02:52:38;;;;;;;6.93;4.13;;;-7.50;99.90;;;;;;4763470;30;20194;-86
2024/01/09 02:55:04;;;;;;;7.27;3.87;;;-7.50;99.90;;;;;;4763554;30;20210;-86
2024/01/09 02:57:30;;;;;;;8.90;4.37;;;-7.50;99.90;;;;;;4756073;30;20206;-86
2024/01/09 02:59:57;;;;;;;8.90;4.73;;;-7.50;99.90;;;;;;4756097;30;20230;-86
2024/01/09 03:02:22;;;;;;;8.73;4.60;;;-7.50;99.90;;;;;;4762817;30;20219;-86
2024/01/09 03:04:48;;;;;;;10.23;4.70;;;-7.40;99.90;;;;;;4755717;30;20327;-85
2024/01/09 03:07:14;;;;;;;6.93;4.13;;;-7.40;99.90;;;;;;4764554;30;20197;-86
2024/01/09 03:09:43;;;;;;;11.40;4.63;;;-7.40;99.90;;;;;;4753255;30;20296;-86
2024/01/09 03:12:09;;;;;;;8.37;4.30;;;-7.50;99.90;;;;;;4747755;30;20257;-86
2024/01/09 03:14:37;;;;;;;8.23;3.87;;;-7.50;99.90;;;;;;4758604;30;20207;-86
2024/01/09 03:17:04;;;;;;;8.47;4.23;;;-7.50;99.90;;;;;;4758483;30;20524;-86
2024/01/09 03:19:39;;;;;;;8.03;4.03;;;-7.50;99.90;;;;;;4756561;30;20199;-86
2024/01/09 03:22:05;;;;;;;7.53;4.10;;;-7.50;99.90;;;;;;4765176;30;20203;-86
2024/01/09 03:24:31;;;;;;;10.80;4.00;;;-7.60;99.90;;;;;;4755421;30;20625;-86
2024/01/09 03:26:57;;;;;;;7.17;4.10;;;-7.60;99.90;;;;;;4752848;30;20196;-86
2024/01/09 03:29:34;;;;;;;11.97;4.43;;;-7.60;99.90;;;;;;4754045;30;20356;-86
2024/01/09 03:32:00;;;;;;;8.37;4.07;;;-7.60;99.90;;;;;;4752896;30;20265;-86
2024/01/09 03:34:26;;;;;;;7.67;3.97;;;-7.70;99.90;;;;;;4767665;30;20648;-86
2024/01/09 03:36:51;;;;;;;7.80;3.60;;;-7.70;99.90;;;;;;4750171;30;20201;-86
2024/01/09 03:39:17;;;;;;;8.17;4.57;;;-7.80;99.90;;;;;;4756231;30;20203;-87
2024/01/09 03:41:52;;;;;;;9.57;4.37;;;-7.90;99.90;;;;;;4778156;30;20228;-87
2024/01/09 03:44:18;;;;;;;10.03;5.13;;;-8.00;99.90;;;;;;4758175;30;20352;-86
2024/01/09 03:46:44;;;;;;;8.77;4.57;;;-8.00;99.90;;;;;;4761050;30;20638;-86
2024/01/09 03:49:11;;;;;;;8.67;4.20;;;-8.00;99.90;;;;;;4765579;30;20730;-86
2024/01/09 03:51:36;;;;;;;6.83;3.90;;;-8.10;99.90;;;;;;5155750;24;20206;-80
2024/01/09 03:54:02;;;;;;;9.67;4.57;;;-8.10;99.90;;;;;;4765604;30;20650;-78
2024/01/09 03:56:28;;;;;;;6.60;4.23;;;-8.10;99.90;;;;;;4773362;30;20539;-79
2024/01/09 03:58:54;;;;;;;8.50;4.43;;;-8.10;99.90;;;;;;4773366;30;20184;-78
2024/01/09 04:01:20;;;;;;;8.17;4.40;;;-8.10;99.90;;;;;;4772392;30;20294;-79
2024/01/09 04:03:46;;;;;;;7.70;3.77;;;-8.10;99.90;;;;;;4774360;30;20232;-79
2024/01/09 04:06:12;;;;;;;9.17;4.30;;;-8.20;99.90;;;;;;4772411;30;20683;-78
2024/01/09 04:08:37;;;;;;;10.60;4.33;;;-8.10;99.90;;;;;;4764078;30;20280;-78
2024/01/09 04:11:04;;;;;;;7.50;4.27;;;-8.10;99.90;;;;;;4751680;30;20192;-79
2024/01/09 04:13:30;;;;;;;9.30;4.00;;;-8.20;99.90;;;;;;4773093;30;20280;-79
2024/01/09 04:15:56;;;;;;;8.00;4.40;;;-8.10;99.90;;;;;;4773249;30;20193;-79
2024/01/09 04:18:22;;;;;;;8.60;4.17;;;-8.10;99.90;;;;;;4757132;30;20206;-79
2024/01/09 04:20:48;;;;;;;6.43;4.17;;;-8.10;99.90;;;;;;4772909;30;20271;-79
2024/01/09 04:23:14;;;;;;;6.93;3.63;;;-8.20;99.90;;;;;;4766045;30;20219;-78
2024/01/09 04:25:39;;;;;;;7.07;3.63;;;-8.20;99.90;;;;;;4773115;30;20190;-79
2024/01/09 04:28:06;;;;;;;5.83;3.80;;;-8.20;99.90;;;;;;4756664;30;20199;-78
2024/01/09 04:30:31;;;;;;;7.80;4.23;;;-8.20;99.90;;;;;;4756645;30;20216;-78
2024/01/09 04:32:57;;;;;;;11.90;4.70;;;-8.30;99.90;;;;;;4773034;30;20235;-78
2024/01/09 04:35:23;;;;;;;8.63;4.90;;;-8.30;99.90;;;;;;4771627;30;20203;-78
2024/01/09 04:37:49;;;;;;;8.77;4.30;;;-8.20;99.90;;;;;;4772189;30;20407;-78
2024/01/09 04:40:15;;;;;;;9.17;4.37;;;-8.10;99.90;;;;;;4772394;30;20219;-79
2024/01/09 04:42:40;;;;;;;9.03;3.93;;;-8.10;99.90;;;;;;4756371;30;20281;-79
2024/01/09 04:45:06;;;;;;;7.53;3.77;;;-8.10;99.90;;;;;;4772803;30;20205;-79
2024/01/09 04:47:32;;;;;;;7.67;4.17;;;-8.10;99.90;;;;;;4771297;30;20231;-79
2024/01/09 04:49:58;;;;;;;7.53;4.00;;;-8.10;99.90;;;;;;4772566;30;20204;-79
2024/01/09 04:52:24;;;;;;;8.47;4.30;;;-8.00;99.90;;;;;;4747014;30;20287;-78
2024/01/09 04:54:49;;;;;;;8.90;4.47;;;-8.00;99.90;;;;;;4754666;30;20223;-79
2024/01/09 04:57:15;;;;;;;8.30;4.03;;;-8.00;99.90;;;;;;4746357;30;20536;-79
2024/01/09 04:59:42;;;;;;;9.67;4.43;;;-7.90;99.90;;;;;;4754711;30;20188;-79
2024/01/09 05:02:09;;;;;;;8.77;4.07;;;-7.90;99.90;;;;;;4753881;30;20193;-79
2024/01/09 05:04:35;;;;;;;6.43;3.93;;;-8.00;99.90;;;;;;4754517;30;20263;-78
2024/01/09 05:07:00;;;;;;;10.07;4.10;;;-8.00;99.90;;;;;;4754252;30;20271;-78
2024/01/09 05:09:27;;;;;;;7.00;4.00;;;-8.00;99.90;;;;;;4754565;30;20189;-78
2024/01/09 05:11:53;;;;;;;6.80;4.00;;;-8.00;99.90;;;;;;4754833;30;20194;-78
2024/01/09 05:14:19;;;;;;;8.43;4.30;;;-8.00;99.90;;;;;;4754674;30;20527;-79
2024/01/09 05:16:44;;;;;;;11.93;4.57;;;-8.00;99.90;;;;;;4750769;30;20188;-78
2024/01/09 05:19:10;;;;;;;8.50;4.50;;;-8.00;99.90;;;;;;4749223;30;20279;-79
2024/01/09 05:21:36;;;;;;;7.97;4.43;;;-8.00;99.90;;;;;;4753042;30;20206;-79
2024/01/09 05:24:02;;;;;;;8.93;4.07;;;-8.00;99.90;;;;;;4748084;30;20220;-79
2024/01/09 05:26:28;;;;;;;8.40;4.57;;;-8.00;99.90;;;;;;4754242;30;20181;-79
2024/01/09 05:28:54;;;;;;;8.37;4.13;;;-8.00;99.90;;;;;;4754182;30;20271;-79
2024/01/09 05:31:20;;;;;;;7.97;3.97;;;-8.00;99.90;;;;;;4754314;30;20254;-79
2024/01/09 05:33:47;;;;;;;9.47;4.50;;;-8.00;99.90;;;;;;4753741;30;20197;-79
2024/01/09 05:36:18;;;;;;;10.40;4.67;;;-8.00;99.90;;;;;;4752810;30;20268;-78
2024/01/09 05:38:44;;;;;;;8.60;4.37;;;-8.10;99.90;;;;;;4753775;30;20182;-79
2024/01/09 05:41:19;;;;;;;9.23;4.60;;;-8.10;99.90;;;;;;4752878;30;20188;-79
2024/01/09 05:43:48;;;;;;;12.50;4.77;;;-8.10;99.90;;;;;;4753796;30;20219;-78
2024/01/09 05:46:14;;;;;;;8.53;4.70;;;-8.10;99.90;;;;;;4753633;30;20186;-79
2024/01/09 05:48:40;;;;;;;8.90;4.53;;;-8.10;99.90;;;;;;4750734;30;20887;-79
2024/01/09 05:51:06;;;;;;;7.80;4.33;;;-8.00;99.90;;;;;;4741146;30;20188;-79
2024/01/09 05:53:32;;;;;;;9.57;4.70;;;-8.00;99.90;;;;;;4760833;30;20624;-78
2024/01/09 05:55:58;;;;;;;9.53;5.17;;;-8.00;99.90;;;;;;4755594;30;20191;-79
2024/01/09 05:58:23;;;;;;;10.27;4.83;;;-8.10;99.90;;;;;;4770017;30;20188;-79
2024/01/09 06:00:49;;;;;;;9.40;4.53;;;-8.10;99.90;;;;;;4754589;30;20287;-78
2024/01/09 06:03:15;;;;;;;10.60;5.00;;;-8.00;99.90;;;;;;4771022;30;20215;-79
2024/01/09 06:05:41;;;;;;;10.77;4.93;;;-8.00;99.90;;;;;;4770037;30;20698;-79
2024/01/09 06:08:07;;;;;;;8.43;4.83;;;-8.00;99.90;;;;;;4771150;30;20884;-79
2024/01/09 06:10:32;;;;;;;8.43;4.13;;;-8.00;99.90;;;;;;4769857;30;20203;-79
2024/01/09 06:12:58;;;;;;;8.57;4.57;;;-8.00;99.90;;;;;;4771039;30;20192;-79
2024/01/09 06:15:24;;;;;;;9.97;4.87;;;-8.10;99.90;;;;;;4771252;30;20275;-79
2024/01/09 06:17:50;;;;;;;8.37;4.40;;;-8.10;99.90;;;;;;4770945;30;20636;-78
2024/01/09 06:20:15;;;;;;;7.80;4.27;;;-8.10;99.90;;;;;;4755181;30;20647;-79
2024/01/09 06:22:41;;;;;;;9.37;4.93;;;-8.10;99.90;;;;;;4763541;30;20221;-79
2024/01/09 06:25:07;;;;;;;10.10;4.77;;;-8.10;99.90;;;;;;4770586;30;20217;-79
2024/01/09 06:27:33;;;;;;;8.77;5.03;;;-8.10;99.90;;;;;;4769045;30;20201;-79
2024/01/09 06:29:58;;;;;;;9.63;4.73;;;-8.10;99.90;;;;;;4770358;30;20188;-78
2024/01/09 06:32:24;;;;;;;8.80;4.67;;;-8.10;99.90;;;;;;4763024;30;20193;-78
2024/01/09 06:34:50;;;;;;;9.30;4.30;;;-8.10;99.90;;;;;;4770160;30;20199;-78
2024/01/09 06:37:16;;;;;;;8.90;4.47;;;-8.10;99.90;;;;;;4768569;30;20295;-78
2024/01/09 06:39:42;;;;;;;14.53;5.27;;;-8.10;99.90;;;;;;4756009;30;20232;-78
2024/01/09 06:42:07;;;;;;;9.97;4.77;;;-8.10;99.90;;;;;;4769469;30;20227;-77
2024/01/09 06:44:33;;;;;;;10.37;4.90;;;-8.10;99.90;;;;;;4770610;30;20199;-78
2024/01/09 06:46:59;;;;;;;9.60;4.47;;;-8.10;99.90;;;;;;4770694;30;20195;-78
2024/01/09 06:49:25;;;;;;;9.03;4.77;;;-8.10;99.90;;;;;;4770294;30;20571;-78
2024/01/09 06:51:53;;;;;;;12.07;5.07;;;-8.10;99.90;;;;;;4768859;30;20199;-78
2024/01/09 06:54:20;;;;;;;12.33;5.20;;;-8.10;99.90;;;;;;4766455;30;20578;-78
2024/01/09 06:56:46;;;;;;;10.80;4.47;;;-8.10;99.90;;;;;;4754553;30;20257;-77
2024/01/09 06:59:12;;;;;;;10.57;4.67;;;-8.10;99.90;;;;;;4769502;30;20196;-78
2024/01/09 07:01:38;;;;;;;11.70;4.70;;;-8.10;99.90;;;;;;4770438;30;20207;-78
2024/01/09 07:04:06;;;;;;;10.47;4.80;;;-8.10;99.90;;;;;;4770162;30;20299;-78
2024/01/09 07:06:32;;;;;;;8.50;4.40;;;-8.10;99.90;;;;;;4770513;30;20251;-78
2024/01/09 07:08:58;;;;;;;9.73;5.10;;;-8.20;99.90;;;;;;4770275;30;20188;-78
2024/01/09 07:11:24;;;;;;;7.17;4.40;;;-8.10;99.90;;;;;;4769957;30;20192;-78
2024/01/09 07:13:50;;;;;;;12.30;4.93;;;-8.20;99.90;;;;;;4770262;30;20203;-78
2024/01/09 07:16:15;;;;;;;9.00;4.87;;;-8.10;99.90;;;;;;4769995;30;20187;-78
2024/01/09 07:18:41;;;;;;;11.80;4.97;;;-8.10;99.90;;;;;;4770142;30;20211;-79
2024/01/09 07:21:07;;;;;;;10.37;5.17;;;-8.10;99.90;;;;;;4770403;30;20198;-78
2024/01/09 07:23:32;;;;;;;10.43;5.13;;;-8.10;99.90;;;;;;4763686;30;20220;-78
2024/01/09 07:25:59;;;;;;;9.53;5.47;;;-8.00;99.90;;;;;;4773024;30;20747;-79
2024/01/09 07:28:25;;;;;;;9.67;4.90;;;-8.00;99.90;;;;;;4773836;30;20235;-78
2024/01/09 07:30:52;;;;;;;10.30;5.10;;;-8.00;99.90;;;;;;4773774;30;20239;-78
2024/01/09 07:33:18;;;;;;;10.50;5.33;;;-8.00;99.90;;;;;;4772784;30;20206;-79
2024/01/09 07:35:44;;;;;;;9.97;5.43;;;-8.00;99.90;;;;;;4773899;30;20635;-78
2024/01/09 07:38:10;;;;;;;10.23;4.67;;;-8.10;99.90;;;;;;4773586;30;20199;-78
2024/01/09 07:40:36;;;;;;;9.53;5.23;;;-8.10;99.90;;;;;;4773629;30;20268;-78
2024/01/09 07:43:02;;;;;;;8.90;4.50;;;-8.00;99.90;;;;;;4773660;30;20219;-78
2024/01/09 07:45:28;;;;;;;9.87;5.37;;;-8.10;99.90;;;;;;4773656;30;20195;-78
2024/01/09 07:47:55;;;;;;;12.37;5.33;;;-8.00;99.90;;;;;;4773734;30;20208;-78
2024/01/09 07:50:22;;;;;;;10.50;5.10;;;-8.00;99.90;;;;;;4757624;30;20222;-78
2024/01/09 07:52:47;;;;;;;9.43;5.23;;;-8.00;99.90;;;;;;4755037;30;20290;-78
2024/01/09 07:55:13;;;;;;;13.40;4.90;;;-7.90;99.90;;;;;;4768518;30;20191;-77
2024/01/09 07:57:39;;;;;;;13.20;5.20;;;-7.90;99.90;;;;;;4773082;30;20211;-78
2024/01/09 08:00:08;;;;;;;12.50;4.87;;;-7.80;99.90;;;;;;4766177;30;20261;-78
2024/01/09 08:02:34;;;;;;;10.57;4.93;;;-7.80;99.90;;;;;;4773198;30;20331;-78
2024/01/09 08:04:59;;;;;;;16.03;5.50;;;-7.70;99.90;;;;;;4772261;30;20645;-79
2024/01/09 08:07:25;;;;;;;13.17;5.03;;;-7.70;99.90;;;;;;4771539;30;20285;-78
2024/01/09 08:09:51;;;;;;;11.57;5.47;;;-7.70;99.90;;;;;;4773200;30;20230;-78
2024/01/09 08:12:17;;;;;;;12.43;5.17;;;-7.70;99.90;;;;;;4773118;30;20199;-78
2024/01/09 08:14:42;;;;;;;11.77;5.73;;;-7.60;99.90;;;;;;4773133;30;20196;-78
2024/01/09 08:17:08;;;;;;;9.93;5.37;;;-7.60;99.90;;;;;;4772908;30;20211;-79
2024/01/09 08:19:34;;;;;;;14.53;5.93;;;-7.60;99.90;;;;;;4756992;30;20227;-78
2024/01/09 08:22:00;;;;;;;12.87;5.37;;;-7.60;99.90;;;;;;4770397;30;20194;-78
2024/01/09 08:24:25;;;;;;;12.30;5.20;;;-7.60;99.90;;;;;;4762401;30;20610;-79
2024/01/09 08:26:52;;;;;;;12.07;6.10;;;-7.50;99.90;;;;;;4772425;30;20198;-78
2024/01/09 08:29:18;;;;;;;12.03;5.70;;;-7.50;99.90;;;;;;4773151;30;20211;-78
2024/01/09 08:31:47;;;;;;;11.03;5.07;;;-7.50;99.90;;;;;;4749558;30;20188;-78
2024/01/09 08:34:14;;;;;;;11.23;5.70;;;-7.50;99.90;;;;;;4772863;30;20627;-78
2024/01/09 08:36:43;;;;;;;11.17;5.87;;;-7.50;99.90;;;;;;4765088;30;20196;-78
2024/01/09 08:39:10;;;;;;;10.97;5.07;;;-7.40;99.90;;;;;;4756459;30;20281;-78
2024/01/09 08:41:36;;;;;;;10.50;5.30;;;-7.50;99.90;;;;;;4772456;30;20857;-77
2024/01/09 08:44:02;;;;;;;12.37;5.50;;;-7.40;99.90;;;;;;4768595;30;20213;-78
2024/01/09 08:46:28;;;;;;;11.23;5.90;;;-7.40;99.90;;;;;;4762158;30;20188;-78
2024/01/09 08:48:55;;;;;;;13.67;6.23;;;-7.40;99.90;;;;;;4772548;30;20188;-78
2024/01/09 08:51:21;;;;;;;10.53;5.43;;;-7.40;99.90;;;;;;4772614;30;20197;-78
2024/01/09 08:53:46;;;;;;;11.67;5.50;;;-7.40;99.90;;;;;;4765766;30;20247;-77
2024/01/09 08:56:12;;;;;;;12.70;6.17;;;-7.30;99.90;;;;;;4756460;30;20202;-78
2024/01/09 08:58:38;;;;;;;11.07;6.30;;;-7.30;99.90;;;;;;4772146;30;20206;-78
2024/01/09 09:01:04;;;;;;;12.07;6.53;;;-7.20;99.90;;;;;;4771206;30;20236;-78
2024/01/09 09:03:29;;;;;;;12.37;6.73;;;-7.20;99.90;;;;;;4756336;30;20323;-78
2024/01/09 09:05:57;;;;;;;13.20;5.50;;;-7.10;99.90;;;;;;4772239;30;20220;-78
2024/01/09 09:08:23;;;;;;;12.93;5.80;;;-7.10;99.90;;;;;;4771428;30;20192;-78
2024/01/09 09:10:48;;;;;;;10.33;5.97;;;-7.10;99.90;;;;;;4772143;30;20251;-78
2024/01/09 09:13:14;;;;;;;13.20;6.47;;;-7.00;99.90;;;;;;4772353;30;20197;-78
2024/01/09 09:15:40;;;;;;;12.07;6.57;;;-7.00;99.90;;;;;;4772041;30;20199;-78
2024/01/09 09:18:06;;;;;;;11.97;6.30;;;-6.90;99.90;;;;;;4763295;30;20270;-78
2024/01/09 09:20:32;;;;;;;12.30;5.33;;;-6.80;99.90;;;;;;4767453;30;20201;-79
2024/01/09 09:22:58;;;;;;;11.83;6.33;;;-6.90;99.90;;;;;;4764943;30;20243;-78
2024/01/09 09:25:24;;;;;;;14.33;6.77;;;-6.80;99.90;;;;;;4770677;30;20692;-79
2024/01/09 09:27:50;;;;;;;11.03;6.53;;;-6.70;99.90;;;;;;4770548;30;20292;-79
2024/01/09 09:30:16;;;;;;;12.87;6.50;;;-6.70;99.90;;;;;;4771977;30;20276;-80
2024/01/09 09:32:42;;;;;;;11.63;6.50;;;-6.80;99.90;;;;;;4770600;30;20682;-80
2024/01/09 09:35:08;;;;;;;13.17;6.50;;;-6.80;99.90;;;;;;4771758;30;20198;-79
2024/01/09 09:37:34;;;;;;;11.60;6.60;;;-6.70;99.90;;;;;;4771139;30;20308;-79
2024/01/09 09:40:00;;;;;;;10.97;5.90;;;-6.60;99.90;;;;;;4771602;30;20186;-80
2024/01/09 09:42:30;;;;;;;11.40;6.00;;;-6.50;99.90;;;;;;4770324;30;20200;-80
2024/01/09 09:45:00;;;;;;;15.07;6.17;;;-6.50;99.90;;;;;;4764718;30;20269;-80
2024/01/09 09:47:27;;;;;;;12.97;6.90;;;-6.50;99.90;;;;;;4771329;30;20183;-80
2024/01/09 09:49:55;;;;;;;10.83;5.63;;;-6.50;99.90;;;;;;4771410;30;20219;-79
2024/01/09 09:52:24;;;;;;;15.60;6.77;;;-6.40;99.90;;;;;;4766000;30;20271;-80
2024/01/09 09:54:50;;;;;;;10.67;5.30;;;-6.40;99.90;;;;;;4755702;30;20246;-80
2024/01/09 09:57:16;;;;;;;11.37;5.60;;;-6.30;99.90;;;;;;4771264;30;20584;-79
2024/01/09 09:59:42;;;;;;;11.53;6.13;;;-6.30;99.90;;;;;;4771455;30;20191;-79
2024/01/09 10:02:15;;;;;;;13.10;6.07;;;-6.30;99.90;;;;;;4769177;30;20190;-79
2024/01/09 10:04:49;;;;;;;11.30;6.03;;;-6.20;99.90;;;;;;4770587;30;20225;-79
2024/01/09 10:07:22;;;;;;;13.10;6.37;;;-6.10;99.90;;;;;;4766821;30;20192;-79
2024/01/09 10:09:53;;;;;;;11.67;5.80;;;-6.00;99.90;;;;;;4769666;30;20198;-79
2024/01/09 10:12:22;;;;;;;15.13;6.63;;;-6.00;99.90;;;;;;4770785;30;20189;-79
2024/01/09 10:15:04;;;;;;;10.67;5.57;;;-6.00;99.90;;;;;;4769464;30;20201;-79
2024/01/09 10:17:30;;;;;;;12.40;6.40;;;-6.00;99.90;;;;;;4754568;30;20600;-79
2024/01/09 10:19:56;;;;;;;12.30;5.73;;;-5.90;99.90;;;;;;4771314;30;20231;-79
2024/01/09 10:22:21;;;;;;;10.10;6.20;;;-5.90;99.90;;;;;;4765611;30;20227;-80
2024/01/09 10:24:47;;;;;;;9.40;5.90;;;-5.80;99.90;;;;;;4770096;30;20275;-79
2024/01/09 10:27:13;;;;;;;9.97;5.53;;;-5.80;99.90;;;;;;4770946;30;20194;-78
2024/01/09 10:29:46;;;;;;;9.93;6.17;;;-5.70;99.90;;;;;;4769579;30;20210;-79
2024/01/09 10:32:19;;;;;;;12.07;6.20;;;-5.60;99.90;;;;;;4754598;30;20201;-80
2024/01/09 10:34:45;;;;;;;13.47;6.30;;;-5.60;99.90;;;;;;4754780;30;20193;-79
2024/01/09 10:37:13;;;;;;;14.57;6.90;;;-5.60;99.90;;;;;;4763442;30;20735;-79
2024/01/09 10:39:39;;;;;;;12.90;6.03;;;-5.50;99.90;;;;;;4770629;30;20678;-80
2024/01/09 10:42:09;;;;;;;12.87;6.07;;;-5.50;99.90;;;;;;4770686;30;20197;-80
2024/01/09 10:44:39;;;;;;;12.63;6.23;;;-5.50;99.90;;;;;;4754636;30;20729;-79
2024/01/09 10:47:13;;;;;;;12.97;6.03;;;-5.40;99.90;;;;;;4770727;30;20191;-81
2024/01/09 10:49:40;;;;;;;11.90;5.67;;;-5.30;99.90;;;;;;4770517;30;20553;-80
2024/01/09 10:52:15;;;;;;;13.67;5.97;;;-5.30;99.90;;;;;;4766873;30;20236;-80
2024/01/09 10:54:42;;;;;;;10.60;5.83;;;-5.20;99.90;;;;;;4768650;30;20221;-80
2024/01/09 10:57:17;;;;;;;12.27;6.00;;;-5.20;99.90;;;;;;4770464;30;20187;-80
2024/01/09 10:59:44;;;;;;;20.40;9.83;;;-5.00;99.90;;;;;;4769876;30;20223;-80
2024/01/09 11:02:21;;;;;;;11.90;6.03;;;-5.00;99.90;;;;;;4770585;30;20192;-80
2024/01/09 11:04:48;;;;;;;11.90;5.50;;;-5.00;99.90;;;;;;4754521;30;20531;-79
2024/01/09 11:07:16;;;;;;;12.53;5.70;;;-5.00;99.90;;;;;;4770252;30;20233;-80
2024/01/09 11:09:46;;;;;;;11.67;6.47;;;-5.00;99.90;;;;;;4769535;30;20665;-80
2024/01/09 11:12:17;;;;;;;14.13;5.60;;;-4.90;99.90;;;;;;4754461;30;20202;-79
2024/01/09 11:14:48;;;;;;;10.53;5.37;;;-4.90;99.90;;;;;;4770386;30;20196;-79
2024/01/09 11:17:16;;;;;;;12.30;5.07;;;-4.90;99.90;;;;;;4754184;30;20189;-80
2024/01/09 11:19:43;;;;;;;11.07;5.53;;;-4.90;99.90;;;;;;4770361;30;20639;-80
2024/01/09 11:22:13;;;;;;;13.33;5.37;;;-4.90;99.90;;;;;;4739280;30;20184;-80
2024/01/09 11:24:39;;;;;;;10.07;5.90;;;-4.80;99.90;;;;;;4751592;30;20280;-79
2024/01/09 11:27:12;;;;;;;11.00;5.50;;;-4.80;99.90;;;;;;4762730;30;20524;-79
2024/01/09 11:29:53;;;;;;;11.23;5.60;;;-4.80;99.90;;;;;;4769842;30;20268;-80
2024/01/09 11:32:24;;;;;;;11.23;5.23;;;-4.70;99.90;;;;;;4770036;30;20222;-79
2024/01/09 11:35:14;;;;;;;10.43;5.37;;;-4.60;99.90;;;;;;4745935;30;20192;-80
2024/01/09 11:37:46;;;;;;;12.23;6.13;;;-4.60;99.90;;;;;;4753874;30;20204;-80
2024/01/09 11:40:13;;;;;;;10.23;5.10;;;-4.50;99.90;;;;;;4770131;30;20551;-80
2024/01/09 11:42:44;;;;;;;11.70;5.50;;;-4.50;99.90;;;;;;4769710;30;20284;-81
2024/01/09 11:45:12;;;;;;;11.43;5.10;;;-4.50;99.90;;;;;;4770090;30;20192;-81
2024/01/09 11:47:42;;;;;;;9.93;5.10;;;-4.40;99.90;;;;;;4753976;30;20636;-80
2024/01/09 11:50:10;;;;;;;8.27;4.83;;;-4.30;99.90;;;;;;4770192;30;20191;-80
2024/01/09 11:52:37;;;;;;;9.83;5.30;;;-4.40;99.90;;;;;;4747529;30;20570;-80
2024/01/09 11:55:07;;;;;;;21.80;8.00;;;-4.40;99.90;;;;;;4753344;30;20331;-80
2024/01/09 11:57:41;;;;;;;11.13;5.53;;;-4.40;99.90;;;;;;4769628;30;20192;-80
2024/01/09 12:00:08;;;;;;;10.83;5.67;;;-4.30;99.90;;;;;;4770085;30;20188;-80
2024/01/09 12:02:39;;;;;;;9.20;5.13;;;-4.20;99.90;;;;;;4769825;30;20184;-80
2024/01/09 12:05:06;;;;;;;8.40;4.77;;;-4.20;99.90;;;;;;4754053;30;20605;-80
2024/01/09 12:07:34;;;;;;;11.93;5.57;;;-4.10;99.90;;;;;;4769502;30;20197;-79
2024/01/09 12:10:03;;;;;;;9.47;5.50;;;-4.20;99.90;;;;;;4769214;30;20192;-81
2024/01/09 12:12:29;;;;;;;11.30;5.10;;;-4.10;99.90;;;;;;4772703;30;20188;-81
2024/01/09 12:14:57;;;;;;;11.40;5.53;;;-4.00;99.90;;;;;;4772118;30;20210;-81
2024/01/09 12:17:29;;;;;;;11.47;5.00;;;-4.00;99.90;;;;;;4757018;30;20195;-81
2024/01/09 12:19:55;;;;;;;11.53;5.73;;;-4.00;99.90;;;;;;4757073;30;20632;-80
2024/01/09 12:22:21;;;;;;;10.50;5.40;;;-4.00;99.90;;;;;;4767404;30;20203;-80
2024/01/09 12:24:51;;;;;;;11.33;5.50;;;-4.00;99.90;;;;;;4771114;30;20196;-81
2024/01/09 12:27:20;;;;;;;12.13;5.23;;;-4.00;99.90;;;;;;4755689;30;20291;-80
2024/01/09 12:29:46;;;;;;;13.77;5.43;;;-3.90;99.90;;;;;;4770993;30;20196;-80
2024/01/09 12:32:13;;;;;;;11.13;5.27;;;-3.90;99.90;;;;;;4750796;30;20644;-79
2024/01/09 12:34:40;;;;;;;9.87;5.23;;;-3.90;99.90;;;;;;4772010;30;20239;-80
2024/01/09 12:37:09;;;;;;;10.33;5.17;;;-3.90;99.90;;;;;;4772888;30;20277;-80
2024/01/09 12:39:36;;;;;;;8.97;5.00;;;-3.90;99.90;;;;;;4772780;30;20233;-80
2024/01/09 12:42:06;;;;;;;9.67;5.43;;;-3.80;99.90;;;;;;4772251;30;20520;-80